sensor_id;sensor_type;location;lat;lon;timestamp;P1;durP1;ratioP1;P2;durP2;ratioP2
80123;SDS011;69433;48.642;9.142;2023-11-19T00:02:21;7.80;;;4.30;;
80123;SDS011;69433;48.642;9.142;2023-11-19T00:04:48;7.35;;;3.92;;
80123;SDS011;69433;48.642;9.142;2023-11-19T00:07:13;8.68;;;4.78;;
80123;SDS011;69433;48.642;9.142;2023-11-19T00:09:39;7.32;;;4.47;;
80123;SDS011;69433;48.642;9.142;2023-11-19T00:12:15;7.88;;;4.18;;
80123;SDS011;69433;48.642;9.142;2023-11-19T00:17:11;6.97;;;4.30;;
80123;SDS011;69433;48.642;9.142;2023-11-19T00:19:37;9.40;;;4.40;;
80123;SDS011;69433;48.642;9.142;2023-11-19T00:22:05;8.02;;;4.28;;
80123;SDS011;69433;48.642;9.142;2023-11-19T00:24:30;7.18;;;4.22;;
80123;SDS011;69433;48.642;9.142;2023-11-19T00:26:57;8.10;;;3.92;;
80123;SDS011;69433;48.642;9.142;2023-11-19T00:29:23;7.78;;;3.78;;
80123;SDS011;69433;48.642;9.142;2023-11-19T00:32:00;9.68;;;3.92;;
80123;SDS011;69433;48.642;9.142;2023-11-19T00:34:27;5.60;;;3.63;;
80123;SDS011;69433;48.642;9.142;2023-11-19T00:36:59;9.15;;;3.85;;
80123;SDS011;69433;48.642;9.142;2023-11-19T00:39:30;6.32;;;3.70;;
80123;SDS011;69433;48.642;9.142;2023-11-19T00:41:56;6.82;;;3.78;;
80123;SDS011;69433;48.642;9.142;2023-11-19T00:44:21;6.53;;;3.85;;
80123;SDS011;69433;48.642;9.142;2023-11-19T00:46:46;7.32;;;4.25;;
80123;SDS011;69433;48.642;9.142;2023-11-19T00:51:51;6.88;;;3.65;;
80123;SDS011;69433;48.642;9.142;2023-11-19T00:54:16;7.35;;;3.80;;
80123;SDS011;69433;48.642;9.142;2023-11-19T00:56:41;6.63;;;3.38;;
80123;SDS011;69433;48.642;9.142;2023-11-19T00:59:06;6.18;;;3.60;;
80123;SDS011;69433;48.642;9.142;2023-11-19T01:01:39;6.45;;;3.72;;
80123;SDS011;69433;48.642;9.142;2023-11-19T01:04:04;8.15;;;3.83;;
80123;SDS011;69433;48.642;9.142;2023-11-19T01:06:30;5.68;;;3.72;;
80123;SDS011;69433;48.642;9.142;2023-11-19T01:08:56;6.82;;;3.33;;
80123;SDS011;69433;48.642;9.142;2023-11-19T01:11:26;7.80;;;3.80;;
80123;SDS011;69433;48.642;9.142;2023-11-19T01:13:56;6.38;;;3.53;;
80123;SDS011;69433;48.642;9.142;2023-11-19T01:16:36;6.07;;;3.25;;
80123;SDS011;69433;48.642;9.142;2023-11-19T01:19:02;7.25;;;3.65;;
80123;SDS011;69433;48.642;9.142;2023-11-19T01:21:32;5.72;;;3.40;;
80123;SDS011;69433;48.642;9.142;2023-11-19T01:23:59;7.00;;;4.18;;
80123;SDS011;69433;48.642;9.142;2023-11-19T01:26:25;7.75;;;4.10;;
80123;SDS011;69433;48.642;9.142;2023-11-19T01:31:25;7.35;;;3.83;;
80123;SDS011;69433;48.642;9.142;2023-11-19T01:33:50;7.03;;;3.45;;
80123;SDS011;69433;48.642;9.142;2023-11-19T01:36:17;7.05;;;3.85;;
80123;SDS011;69433;48.642;9.142;2023-11-19T01:38:42;5.30;;;3.45;;
80123;SDS011;69433;48.642;9.142;2023-11-19T01:41:10;6.35;;;3.50;;
80123;SDS011;69433;48.642;9.142;2023-11-19T01:43:45;6.57;;;3.28;;
80123;SDS011;69433;48.642;9.142;2023-11-19T01:46:12;5.13;;;3.53;;
80123;SDS011;69433;48.642;9.142;2023-11-19T01:48:44;6.18;;;3.58;;
80123;SDS011;69433;48.642;9.142;2023-11-19T01:51:14;6.25;;;3.58;;
80123;SDS011;69433;48.642;9.142;2023-11-19T01:56:08;5.85;;;3.03;;
80123;SDS011;69433;48.642;9.142;2023-11-19T01:58:36;6.47;;;3.20;;
80123;SDS011;69433;48.642;9.142;2023-11-19T02:01:01;6.82;;;3.80;;
80123;SDS011;69433;48.642;9.142;2023-11-19T02:03:31;6.22;;;3.35;;
80123;SDS011;69433;48.642;9.142;2023-11-19T02:05:57;11.40;;;3.88;;
80123;SDS011;69433;48.642;9.142;2023-11-19T02:08:30;6.03;;;3.33;;
80123;SDS011;69433;48.642;9.142;2023-11-19T02:13:32;5.47;;;3.03;;
80123;SDS011;69433;48.642;9.142;2023-11-19T02:15:57;6.25;;;3.60;;
80123;SDS011;69433;48.642;9.142;2023-11-19T02:18:25;6.72;;;3.10;;
80123;SDS011;69433;48.642;9.142;2023-11-19T02:21:00;6.03;;;3.60;;
80123;SDS011;69433;48.642;9.142;2023-11-19T02:23:26;6.47;;;3.72;;
80123;SDS011;69433;48.642;9.142;2023-11-19T02:26:05;5.28;;;3.00;;
80123;SDS011;69433;48.642;9.142;2023-11-19T02:28:42;6.30;;;3.40;;
80123;SDS011;69433;48.642;9.142;2023-11-19T02:31:08;5.75;;;3.20;;
80123;SDS011;69433;48.642;9.142;2023-11-19T02:33:38;6.60;;;3.15;;
80123;SDS011;69433;48.642;9.142;2023-11-19T02:36:05;6.32;;;3.53;;
80123;SDS011;69433;48.642;9.142;2023-11-19T02:38:33;7.35;;;3.20;;
80123;SDS011;69433;48.642;9.142;2023-11-19T02:40:59;5.60;;;2.97;;
80123;SDS011;69433;48.642;9.142;2023-11-19T02:43:30;6.15;;;3.28;;
80123;SDS011;69433;48.642;9.142;2023-11-19T02:46:06;5.80;;;3.00;;
80123;SDS011;69433;48.642;9.142;2023-11-19T02:48:33;5.90;;;2.90;;
80123;SDS011;69433;48.642;9.142;2023-11-19T02:51:10;6.18;;;3.13;;
80123;SDS011;69433;48.642;9.142;2023-11-19T02:53:35;4.90;;;3.00;;
80123;SDS011;69433;48.642;9.142;2023-11-19T02:56:06;5.55;;;3.10;;
80123;SDS011;69433;48.642;9.142;2023-11-19T02:58:42;7.68;;;3.20;;
80123;SDS011;69433;48.642;9.142;2023-11-19T03:01:23;5.78;;;3.00;;
80123;SDS011;69433;48.642;9.142;2023-11-19T03:03:56;5.80;;;2.80;;
80123;SDS011;69433;48.642;9.142;2023-11-19T03:06:24;4.70;;;2.90;;
80123;SDS011;69433;48.642;9.142;2023-11-19T03:08:50;5.03;;;2.80;;
80123;SDS011;69433;48.642;9.142;2023-11-19T03:11:16;4.88;;;2.83;;
80123;SDS011;69433;48.642;9.142;2023-11-19T03:13:42;5.43;;;2.78;;
80123;SDS011;69433;48.642;9.142;2023-11-19T03:16:08;5.07;;;3.30;;
80123;SDS011;69433;48.642;9.142;2023-11-19T03:18:40;4.70;;;2.63;;
80123;SDS011;69433;48.642;9.142;2023-11-19T03:21:06;5.55;;;3.30;;
80123;SDS011;69433;48.642;9.142;2023-11-19T03:23:33;7.97;;;3.10;;
80123;SDS011;69433;48.642;9.142;2023-11-19T03:25:59;5.05;;;3.05;;
80123;SDS011;69433;48.642;9.142;2023-11-19T03:28:26;6.00;;;2.83;;
80123;SDS011;69433;48.642;9.142;2023-11-19T03:30:53;4.55;;;3.10;;
80123;SDS011;69433;48.642;9.142;2023-11-19T03:33:18;5.43;;;2.88;;
80123;SDS011;69433;48.642;9.142;2023-11-19T03:35:43;5.50;;;2.88;;
80123;SDS011;69433;48.642;9.142;2023-11-19T03:38:12;5.25;;;2.90;;
80123;SDS011;69433;48.642;9.142;2023-11-19T03:40:43;5.75;;;2.72;;
80123;SDS011;69433;48.642;9.142;2023-11-19T03:43:09;5.00;;;2.50;;
80123;SDS011;69433;48.642;9.142;2023-11-19T03:45:34;5.63;;;3.00;;
80123;SDS011;69433;48.642;9.142;2023-11-19T03:48:09;4.65;;;2.95;;
80123;SDS011;69433;48.642;9.142;2023-11-19T03:50:34;3.83;;;2.72;;
80123;SDS011;69433;48.642;9.142;2023-11-19T03:53:01;5.40;;;2.70;;
80123;SDS011;69433;48.642;9.142;2023-11-19T03:57:58;4.72;;;2.55;;
80123;SDS011;69433;48.642;9.142;2023-11-19T04:03:02;4.53;;;2.90;;
80123;SDS011;69433;48.642;9.142;2023-11-19T04:05:29;5.25;;;2.47;;
80123;SDS011;69433;48.642;9.142;2023-11-19T04:07:56;4.88;;;2.58;;
80123;SDS011;69433;48.642;9.142;2023-11-19T04:10:23;4.32;;;2.60;;
80123;SDS011;69433;48.642;9.142;2023-11-19T04:12:51;5.10;;;2.42;;
80123;SDS011;69433;48.642;9.142;2023-11-19T04:15:19;3.75;;;2.22;;
80123;SDS011;69433;48.642;9.142;2023-11-19T04:17:45;5.57;;;2.60;;
80123;SDS011;69433;48.642;9.142;2023-11-19T04:20:12;5.03;;;2.80;;
80123;SDS011;69433;48.642;9.142;2023-11-19T04:25:23;5.47;;;2.70;;
80123;SDS011;69433;48.642;9.142;2023-11-19T04:27:51;4.28;;;2.38;;
80123;SDS011;69433;48.642;9.142;2023-11-19T04:30:16;4.22;;;2.50;;
80123;SDS011;69433;48.642;9.142;2023-11-19T04:32:43;4.45;;;2.65;;
80123;SDS011;69433;48.642;9.142;2023-11-19T04:35:09;3.95;;;2.42;;
80123;SDS011;69433;48.642;9.142;2023-11-19T04:37:34;3.80;;;2.67;;
80123;SDS011;69433;48.642;9.142;2023-11-19T04:42:32;4.60;;;2.55;;
80123;SDS011;69433;48.642;9.142;2023-11-19T04:44:57;4.45;;;2.30;;
80123;SDS011;69433;48.642;9.142;2023-11-19T04:47:26;4.45;;;2.47;;
80123;SDS011;69433;48.642;9.142;2023-11-19T04:49:53;3.97;;;2.53;;
80123;SDS011;69433;48.642;9.142;2023-11-19T04:52:20;5.43;;;2.33;;
80123;SDS011;69433;48.642;9.142;2023-11-19T04:54:48;3.80;;;2.53;;
80123;SDS011;69433;48.642;9.142;2023-11-19T04:57:20;4.38;;;2.65;;
80123;SDS011;69433;48.642;9.142;2023-11-19T04:59:48;4.57;;;2.35;;
80123;SDS011;69433;48.642;9.142;2023-11-19T05:02:26;5.95;;;2.60;;
80123;SDS011;69433;48.642;9.142;2023-11-19T05:04:54;4.22;;;2.47;;
80123;SDS011;69433;48.642;9.142;2023-11-19T05:07:19;4.18;;;2.15;;
80123;SDS011;69433;48.642;9.142;2023-11-19T05:09:45;5.05;;;2.53;;
80123;SDS011;69433;48.642;9.142;2023-11-19T05:12:10;5.07;;;2.35;;
80123;SDS011;69433;48.642;9.142;2023-11-19T05:14:37;4.50;;;2.28;;
80123;SDS011;69433;48.642;9.142;2023-11-19T05:17:10;4.57;;;2.50;;
80123;SDS011;69433;48.642;9.142;2023-11-19T05:19:35;4.80;;;2.20;;
80123;SDS011;69433;48.642;9.142;2023-11-19T05:22:02;4.30;;;2.38;;
80123;SDS011;69433;48.642;9.142;2023-11-19T05:24:27;7.38;;;2.25;;
80123;SDS011;69433;48.642;9.142;2023-11-19T05:26:52;4.53;;;2.20;;
80123;SDS011;69433;48.642;9.142;2023-11-19T05:29:18;4.63;;;2.30;;
80123;SDS011;69433;48.642;9.142;2023-11-19T05:31:44;4.57;;;2.33;;
80123;SDS011;69433;48.642;9.142;2023-11-19T05:34:10;9.65;;;2.50;;
80123;SDS011;69433;48.642;9.142;2023-11-19T05:36:35;4.28;;;2.35;;
80123;SDS011;69433;48.642;9.142;2023-11-19T05:39:00;4.55;;;2.30;;
80123;SDS011;69433;48.642;9.142;2023-11-19T05:41:34;5.03;;;2.80;;
80123;SDS011;69433;48.642;9.142;2023-11-19T05:43:59;4.00;;;2.30;;
80123;SDS011;69433;48.642;9.142;2023-11-19T05:46:24;3.83;;;2.28;;
80123;SDS011;69433;48.642;9.142;2023-11-19T05:48:52;4.60;;;2.47;;
80123;SDS011;69433;48.642;9.142;2023-11-19T05:51:18;4.57;;;2.13;;
80123;SDS011;69433;48.642;9.142;2023-11-19T05:53:43;4.28;;;2.28;;
80123;SDS011;69433;48.642;9.142;2023-11-19T05:56:10;4.50;;;2.20;;
80123;SDS011;69433;48.642;9.142;2023-11-19T05:58:36;4.22;;;2.22;;
80123;SDS011;69433;48.642;9.142;2023-11-19T06:01:02;4.75;;;2.40;;
80123;SDS011;69433;48.642;9.142;2023-11-19T06:03:29;3.95;;;2.55;;
80123;SDS011;69433;48.642;9.142;2023-11-19T06:05:56;5.20;;;2.38;;
80123;SDS011;69433;48.642;9.142;2023-11-19T06:08:22;5.05;;;2.35;;
80123;SDS011;69433;48.642;9.142;2023-11-19T06:10:47;4.07;;;2.35;;
80123;SDS011;69433;48.642;9.142;2023-11-19T06:13:22;2.67;;;1.85;;
80123;SDS011;69433;48.642;9.142;2023-11-19T06:15:48;3.60;;;2.13;;
80123;SDS011;69433;48.642;9.142;2023-11-19T06:18:23;3.88;;;2.60;;
80123;SDS011;69433;48.642;9.142;2023-11-19T06:20:48;5.00;;;2.28;;
80123;SDS011;69433;48.642;9.142;2023-11-19T06:23:22;5.57;;;2.30;;
80123;SDS011;69433;48.642;9.142;2023-11-19T06:25:47;3.97;;;2.20;;
80123;SDS011;69433;48.642;9.142;2023-11-19T06:28:14;4.22;;;2.33;;
80123;SDS011;69433;48.642;9.142;2023-11-19T06:30:39;5.15;;;2.08;;
80123;SDS011;69433;48.642;9.142;2023-11-19T06:33:06;3.20;;;2.03;;
80123;SDS011;69433;48.642;9.142;2023-11-19T06:35:32;5.50;;;2.35;;
80123;SDS011;69433;48.642;9.142;2023-11-19T06:38:03;4.10;;;2.00;;
80123;SDS011;69433;48.642;9.142;2023-11-19T06:40:35;3.65;;;2.17;;
80123;SDS011;69433;48.642;9.142;2023-11-19T06:43:00;4.78;;;2.00;;
80123;SDS011;69433;48.642;9.142;2023-11-19T06:45:26;3.33;;;2.03;;
80123;SDS011;69433;48.642;9.142;2023-11-19T06:50:31;3.05;;;1.80;;
80123;SDS011;69433;48.642;9.142;2023-11-19T06:52:57;3.33;;;1.90;;
80123;SDS011;69433;48.642;9.142;2023-11-19T06:55:22;4.47;;;2.20;;
80123;SDS011;69433;48.642;9.142;2023-11-19T06:57:47;3.03;;;1.92;;
80123;SDS011;69433;48.642;9.142;2023-11-19T07:00:15;2.60;;;1.80;;
80123;SDS011;69433;48.642;9.142;2023-11-19T07:05:17;3.80;;;2.20;;
80123;SDS011;69433;48.642;9.142;2023-11-19T07:07:43;3.90;;;2.13;;
80123;SDS011;69433;48.642;9.142;2023-11-19T07:10:08;4.03;;;2.03;;
80123;SDS011;69433;48.642;9.142;2023-11-19T07:12:35;3.20;;;2.00;;
80123;SDS011;69433;48.642;9.142;2023-11-19T07:15:01;5.45;;;2.55;;
80123;SDS011;69433;48.642;9.142;2023-11-19T07:17:31;4.18;;;2.35;;
80123;SDS011;69433;48.642;9.142;2023-11-19T07:19:56;3.65;;;1.88;;
80123;SDS011;69433;48.642;9.142;2023-11-19T07:22:25;2.67;;;1.80;;
80123;SDS011;69433;48.642;9.142;2023-11-19T07:24:58;3.13;;;2.00;;
80123;SDS011;69433;48.642;9.142;2023-11-19T07:27:23;3.40;;;1.92;;
80123;SDS011;69433;48.642;9.142;2023-11-19T07:29:51;3.05;;;2.00;;
80123;SDS011;69433;48.642;9.142;2023-11-19T07:32:16;5.30;;;2.40;;
80123;SDS011;69433;48.642;9.142;2023-11-19T07:34:43;3.00;;;2.20;;
80123;SDS011;69433;48.642;9.142;2023-11-19T07:37:09;3.47;;;2.03;;
80123;SDS011;69433;48.642;9.142;2023-11-19T07:39:37;2.70;;;1.52;;
80123;SDS011;69433;48.642;9.142;2023-11-19T07:42:17;3.30;;;1.80;;
80123;SDS011;69433;48.642;9.142;2023-11-19T07:44:43;3.35;;;2.10;;
80123;SDS011;69433;48.642;9.142;2023-11-19T07:47:10;3.42;;;1.65;;
80123;SDS011;69433;48.642;9.142;2023-11-19T07:49:38;3.75;;;1.90;;
80123;SDS011;69433;48.642;9.142;2023-11-19T07:52:04;4.53;;;2.20;;
80123;SDS011;69433;48.642;9.142;2023-11-19T07:54:30;3.33;;;2.00;;
80123;SDS011;69433;48.642;9.142;2023-11-19T07:59:26;3.03;;;1.65;;
80123;SDS011;69433;48.642;9.142;2023-11-19T08:01:53;6.05;;;1.88;;
80123;SDS011;69433;48.642;9.142;2023-11-19T08:04:20;7.35;;;3.03;;
80123;SDS011;69433;48.642;9.142;2023-11-19T08:06:45;5.07;;;1.88;;
80123;SDS011;69433;48.642;9.142;2023-11-19T08:09:13;3.97;;;2.00;;
80123;SDS011;69433;48.642;9.142;2023-11-19T08:11:41;3.10;;;1.88;;
80123;SDS011;69433;48.642;9.142;2023-11-19T08:14:06;2.35;;;1.70;;
80123;SDS011;69433;48.642;9.142;2023-11-19T08:16:32;2.65;;;1.63;;
80123;SDS011;69433;48.642;9.142;2023-11-19T08:18:57;3.13;;;1.52;;
80123;SDS011;69433;48.642;9.142;2023-11-19T08:21:23;3.85;;;2.05;;
80123;SDS011;69433;48.642;9.142;2023-11-19T08:23:50;2.97;;;2.05;;
80123;SDS011;69433;48.642;9.142;2023-11-19T08:26:23;4.05;;;1.90;;
80123;SDS011;69433;48.642;9.142;2023-11-19T08:28:48;2.90;;;1.83;;
80123;SDS011;69433;48.642;9.142;2023-11-19T08:31:16;4.35;;;2.20;;
80123;SDS011;69433;48.642;9.142;2023-11-19T15:36:30;6.88;;;2.60;;
80123;SDS011;69433;48.642;9.142;2023-11-19T15:38:57;8.02;;;3.15;;
80123;SDS011;69433;48.642;9.142;2023-11-19T15:41:22;7.55;;;3.08;;
80123;SDS011;69433;48.642;9.142;2023-11-19T15:43:47;9.90;;;3.50;;
80123;SDS011;69433;48.642;9.142;2023-11-19T15:46:13;9.95;;;4.40;;
80123;SDS011;69433;48.642;9.142;2023-11-19T15:48:38;6.88;;;3.83;;
80123;SDS011;69433;48.642;9.142;2023-11-19T15:51:03;12.10;;;5.03;;
80123;SDS011;69433;48.642;9.142;2023-11-19T15:53:30;11.32;;;5.05;;
80123;SDS011;69433;48.642;9.142;2023-11-19T15:56:00;10.80;;;4.88;;
80123;SDS011;69433;48.642;9.142;2023-11-19T15:58:33;13.98;;;5.05;;
80123;SDS011;69433;48.642;9.142;2023-11-19T16:01:00;10.98;;;4.50;;
80123;SDS011;69433;48.642;9.142;2023-11-19T16:03:25;7.68;;;4.40;;
80123;SDS011;69433;48.642;9.142;2023-11-19T16:05:51;9.90;;;4.63;;
80123;SDS011;69433;48.642;9.142;2023-11-19T16:08:18;13.18;;;4.60;;
80123;SDS011;69433;48.642;9.142;2023-11-19T16:10:48;9.50;;;4.20;;
80123;SDS011;69433;48.642;9.142;2023-11-19T16:13:15;7.88;;;4.30;;
80123;SDS011;69433;48.642;9.142;2023-11-19T16:15:40;11.25;;;4.40;;
80123;SDS011;69433;48.642;9.142;2023-11-19T16:18:06;11.02;;;4.43;;
80123;SDS011;69433;48.642;9.142;2023-11-19T16:20:36;7.60;;;4.15;;
80123;SDS011;69433;48.642;9.142;2023-11-19T16:23:02;7.35;;;4.13;;
80123;SDS011;69433;48.642;9.142;2023-11-19T16:25:35;7.57;;;3.65;;
80123;SDS011;69433;48.642;9.142;2023-11-19T16:28:04;7.50;;;3.97;;
80123;SDS011;69433;48.642;9.142;2023-11-19T16:30:39;7.40;;;4.30;;
80123;SDS011;69433;48.642;9.142;2023-11-19T16:33:06;8.70;;;3.97;;
80123;SDS011;69433;48.642;9.142;2023-11-19T16:35:32;8.30;;;3.70;;
80123;SDS011;69433;48.642;9.142;2023-11-19T16:37:59;7.22;;;4.03;;
80123;SDS011;69433;48.642;9.142;2023-11-19T16:40:39;7.50;;;3.60;;
80123;SDS011;69433;48.642;9.142;2023-11-19T16:43:08;7.30;;;3.17;;
80123;SDS011;69433;48.642;9.142;2023-11-19T16:45:33;6.80;;;3.20;;
80123;SDS011;69433;48.642;9.142;2023-11-19T16:47:58;5.65;;;3.25;;
80123;SDS011;69433;48.642;9.142;2023-11-19T16:50:26;4.82;;;3.63;;
80123;SDS011;69433;48.642;9.142;2023-11-19T16:52:53;6.43;;;3.58;;
80123;SDS011;69433;48.642;9.142;2023-11-19T16:55:18;8.90;;;4.20;;
80123;SDS011;69433;48.642;9.142;2023-11-19T16:57:43;7.10;;;4.13;;
80123;SDS011;69433;48.642;9.142;2023-11-19T17:00:15;7.60;;;3.75;;
80123;SDS011;69433;48.642;9.142;2023-11-19T17:02:40;5.18;;;3.88;;
80123;SDS011;69433;48.642;9.142;2023-11-19T17:05:09;7.82;;;4.60;;
80123;SDS011;69433;48.642;9.142;2023-11-19T17:07:34;10.57;;;8.45;;
80123;SDS011;69433;48.642;9.142;2023-11-19T17:10:00;19.15;;;13.50;;
80123;SDS011;69433;48.642;9.142;2023-11-19T17:12:33;22.30;;;15.88;;
80123;SDS011;69433;48.642;9.142;2023-11-19T17:15:05;22.83;;;17.85;;
80123;SDS011;69433;48.642;9.142;2023-11-19T17:17:31;22.73;;;19.05;;
80123;SDS011;69433;48.642;9.142;2023-11-19T17:20:03;22.20;;;18.60;;
80123;SDS011;69433;48.642;9.142;2023-11-19T17:22:31;22.13;;;18.70;;
80123;SDS011;69433;48.642;9.142;2023-11-19T17:24:58;22.70;;;18.48;;
80123;SDS011;69433;48.642;9.142;2023-11-19T17:27:33;20.40;;;17.50;;
80123;SDS011;69433;48.642;9.142;2023-11-19T17:29:58;20.33;;;16.73;;
80123;SDS011;69433;48.642;9.142;2023-11-19T17:32:24;21.15;;;16.75;;
80123;SDS011;69433;48.642;9.142;2023-11-19T17:34:50;19.70;;;16.63;;
80123;SDS011;69433;48.642;9.142;2023-11-19T17:37:16;21.60;;;16.95;;
80123;SDS011;69433;48.642;9.142;2023-11-19T17:39:44;18.98;;;15.45;;
80123;SDS011;69433;48.642;9.142;2023-11-19T17:42:12;18.50;;;15.15;;
80123;SDS011;69433;48.642;9.142;2023-11-19T17:44:38;19.17;;;14.55;;
80123;SDS011;69433;48.642;9.142;2023-11-19T17:47:15;18.27;;;14.70;;
80123;SDS011;69433;48.642;9.142;2023-11-19T17:49:47;18.77;;;14.88;;
80123;SDS011;69433;48.642;9.142;2023-11-19T17:52:13;15.93;;;13.85;;
80123;SDS011;69433;48.642;9.142;2023-11-19T17:54:40;17.60;;;14.27;;
80123;SDS011;69433;48.642;9.142;2023-11-19T17:57:06;15.73;;;14.02;;
80123;SDS011;69433;48.642;9.142;2023-11-19T17:59:33;17.52;;;13.95;;
80123;SDS011;69433;48.642;9.142;2023-11-19T18:01:59;22.88;;;14.13;;
80123;SDS011;69433;48.642;9.142;2023-11-19T18:04:27;17.33;;;13.77;;
80123;SDS011;69433;48.642;9.142;2023-11-19T18:06:52;14.55;;;12.43;;
80123;SDS011;69433;48.642;9.142;2023-11-19T18:09:19;17.23;;;13.77;;
80123;SDS011;69433;48.642;9.142;2023-11-19T18:11:45;16.40;;;13.75;;
80123;SDS011;69433;48.642;9.142;2023-11-19T18:14:17;16.50;;;12.95;;
80123;SDS011;69433;48.642;9.142;2023-11-19T18:16:42;15.30;;;12.68;;
80123;SDS011;69433;48.642;9.142;2023-11-19T18:19:09;16.27;;;13.27;;
80123;SDS011;69433;48.642;9.142;2023-11-19T18:21:35;14.65;;;12.68;;
80123;SDS011;69433;48.642;9.142;2023-11-19T18:24:01;16.15;;;12.93;;
80123;SDS011;69433;48.642;9.142;2023-11-19T18:26:32;13.68;;;12.18;;
80123;SDS011;69433;48.642;9.142;2023-11-19T18:29:00;16.90;;;12.93;;
80123;SDS011;69433;48.642;9.142;2023-11-19T18:31:27;16.88;;;11.48;;
80123;SDS011;69433;48.642;9.142;2023-11-19T18:33:53;14.75;;;11.23;;
80123;SDS011;69433;48.642;9.142;2023-11-19T18:36:18;18.77;;;12.55;;
80123;SDS011;69433;48.642;9.142;2023-11-19T18:38:44;17.23;;;13.82;;
80123;SDS011;69433;48.642;9.142;2023-11-19T18:41:10;19.80;;;14.73;;
80123;SDS011;69433;48.642;9.142;2023-11-19T18:43:38;21.95;;;16.55;;
80123;SDS011;69433;48.642;9.142;2023-11-19T18:46:04;18.42;;;15.32;;
80123;SDS011;69433;48.642;9.142;2023-11-19T18:48:30;19.63;;;15.07;;
80123;SDS011;69433;48.642;9.142;2023-11-19T18:50:55;17.88;;;14.13;;
80123;SDS011;69433;48.642;9.142;2023-11-19T18:53:22;19.88;;;13.98;;
80123;SDS011;69433;48.642;9.142;2023-11-19T18:55:59;19.95;;;14.98;;
80123;SDS011;69433;48.642;9.142;2023-11-19T18:58:25;19.02;;;13.98;;
80123;SDS011;69433;48.642;9.142;2023-11-19T19:00:50;16.70;;;13.32;;
80123;SDS011;69433;48.642;9.142;2023-11-19T19:03:16;18.75;;;13.98;;
80123;SDS011;69433;48.642;9.142;2023-11-19T19:05:46;18.70;;;14.27;;
80123;SDS011;69433;48.642;9.142;2023-11-19T19:08:11;15.20;;;12.82;;
80123;SDS011;69433;48.642;9.142;2023-11-19T19:10:40;16.27;;;12.70;;
80123;SDS011;69433;48.642;9.142;2023-11-19T19:13:06;16.35;;;13.50;;
80123;SDS011;69433;48.642;9.142;2023-11-19T19:15:44;17.85;;;13.40;;
80123;SDS011;69433;48.642;9.142;2023-11-19T19:18:10;15.25;;;13.07;;
80123;SDS011;69433;48.642;9.142;2023-11-19T19:20:35;15.63;;;12.65;;
80123;SDS011;69433;48.642;9.142;2023-11-19T19:23:07;17.02;;;13.65;;
80123;SDS011;69433;48.642;9.142;2023-11-19T19:25:33;17.15;;;12.70;;
80123;SDS011;69433;48.642;9.142;2023-11-19T19:28:03;15.60;;;12.65;;
80123;SDS011;69433;48.642;9.142;2023-11-19T19:30:36;17.15;;;13.63;;
80123;SDS011;69433;48.642;9.142;2023-11-19T19:33:02;16.77;;;12.18;;
80123;SDS011;69433;48.642;9.142;2023-11-19T19:35:33;17.88;;;13.13;;
80123;SDS011;69433;48.642;9.142;2023-11-19T19:37:59;15.52;;;12.23;;
80123;SDS011;69433;48.642;9.142;2023-11-19T19:40:31;17.15;;;13.13;;
80123;SDS011;69433;48.642;9.142;2023-11-19T19:42:56;14.90;;;12.48;;
80123;SDS011;69433;48.642;9.142;2023-11-19T19:45:23;14.02;;;12.27;;
80123;SDS011;69433;48.642;9.142;2023-11-19T19:50:31;14.55;;;11.45;;
80123;SDS011;69433;48.642;9.142;2023-11-19T19:52:57;13.68;;;11.15;;
80123;SDS011;69433;48.642;9.142;2023-11-19T19:57:50;15.13;;;11.75;;
80123;SDS011;69433;48.642;9.142;2023-11-19T20:00:18;14.82;;;11.48;;
80123;SDS011;69433;48.642;9.142;2023-11-19T20:02:46;15.30;;;11.50;;
80123;SDS011;69433;48.642;9.142;2023-11-19T20:05:13;14.13;;;11.35;;
80123;SDS011;69433;48.642;9.142;2023-11-19T20:07:40;14.90;;;11.50;;
80123;SDS011;69433;48.642;9.142;2023-11-19T20:10:06;13.32;;;10.85;;
80123;SDS011;69433;48.642;9.142;2023-11-19T20:12:32;13.48;;;10.45;;
80123;SDS011;69433;48.642;9.142;2023-11-19T20:14:57;14.98;;;11.50;;
80123;SDS011;69433;48.642;9.142;2023-11-19T20:17:26;13.90;;;11.23;;
80123;SDS011;69433;48.642;9.142;2023-11-19T20:19:55;14.27;;;10.98;;
80123;SDS011;69433;48.642;9.142;2023-11-19T20:22:20;13.70;;;10.98;;
80123;SDS011;69433;48.642;9.142;2023-11-19T20:24:47;13.95;;;10.93;;
80123;SDS011;69433;48.642;9.142;2023-11-19T20:27:12;13.65;;;10.57;;
80123;SDS011;69433;48.642;9.142;2023-11-19T20:29:44;13.02;;;10.98;;
80123;SDS011;69433;48.642;9.142;2023-11-19T20:32:20;13.27;;;10.32;;
80123;SDS011;69433;48.642;9.142;2023-11-19T20:34:45;14.98;;;11.63;;
80123;SDS011;69433;48.642;9.142;2023-11-19T20:37:13;12.30;;;10.35;;
80123;SDS011;69433;48.642;9.142;2023-11-19T20:39:42;14.90;;;11.68;;
80123;SDS011;69433;48.642;9.142;2023-11-19T20:42:15;12.70;;;10.07;;
80123;SDS011;69433;48.642;9.142;2023-11-19T20:44:40;11.80;;;9.88;;
80123;SDS011;69433;48.642;9.142;2023-11-19T20:47:14;15.80;;;10.52;;
80123;SDS011;69433;48.642;9.142;2023-11-19T20:49:39;12.82;;;10.32;;
80123;SDS011;69433;48.642;9.142;2023-11-19T20:52:14;11.40;;;10.07;;
80123;SDS011;69433;48.642;9.142;2023-11-19T20:54:44;11.93;;;10.10;;
80123;SDS011;69433;48.642;9.142;2023-11-19T20:57:14;11.13;;;9.68;;
80123;SDS011;69433;48.642;9.142;2023-11-19T20:59:40;12.15;;;9.73;;
80123;SDS011;69433;48.642;9.142;2023-11-19T21:02:06;11.98;;;9.70;;
80123;SDS011;69433;48.642;9.142;2023-11-19T21:04:33;13.40;;;10.13;;
80123;SDS011;69433;48.642;9.142;2023-11-19T21:07:00;14.27;;;9.82;;
80123;SDS011;69433;48.642;9.142;2023-11-19T21:09:26;17.33;;;12.57;;
80123;SDS011;69433;48.642;9.142;2023-11-19T21:11:52;27.65;;;21.00;;
80123;SDS011;69433;48.642;9.142;2023-11-19T21:14:17;54.15;;;37.45;;
80123;SDS011;69433;48.642;9.142;2023-11-19T21:16:43;53.75;;;35.47;;
80123;SDS011;69433;48.642;9.142;2023-11-19T21:19:08;48.35;;;34.67;;
80123;SDS011;69433;48.642;9.142;2023-11-19T21:21:34;40.63;;;29.58;;
80123;SDS011;69433;48.642;9.142;2023-11-19T21:24:08;41.97;;;28.77;;
80123;SDS011;69433;48.642;9.142;2023-11-19T21:26:35;40.15;;;26.83;;
80123;SDS011;69433;48.642;9.142;2023-11-19T21:29:03;38.20;;;24.75;;
80123;SDS011;69433;48.642;9.142;2023-11-19T21:31:37;32.90;;;24.73;;
80123;SDS011;69433;48.642;9.142;2023-11-19T21:34:04;34.80;;;24.60;;
80123;SDS011;69433;48.642;9.142;2023-11-19T21:36:30;32.08;;;23.70;;
80123;SDS011;69433;48.642;9.142;2023-11-19T21:38:56;33.75;;;23.92;;
80123;SDS011;69433;48.642;9.142;2023-11-19T21:41:22;32.47;;;22.73;;
80123;SDS011;69433;48.642;9.142;2023-11-19T21:43:49;31.50;;;23.40;;
80123;SDS011;69433;48.642;9.142;2023-11-19T21:46:17;30.70;;;22.25;;
80123;SDS011;69433;48.642;9.142;2023-11-19T21:48:46;32.80;;;23.30;;
80123;SDS011;69433;48.642;9.142;2023-11-19T21:51:13;32.03;;;22.35;;
80123;SDS011;69433;48.642;9.142;2023-11-19T21:53:38;31.85;;;22.63;;
80123;SDS011;69433;48.642;9.142;2023-11-19T21:56:05;28.00;;;21.60;;
80123;SDS011;69433;48.642;9.142;2023-11-19T21:58:31;27.58;;;21.92;;
80123;SDS011;69433;48.642;9.142;2023-11-19T22:00:57;29.65;;;21.75;;
80123;SDS011;69433;48.642;9.142;2023-11-19T22:03:28;28.10;;;21.55;;
80123;SDS011;69433;48.642;9.142;2023-11-19T22:05:57;29.67;;;21.35;;
80123;SDS011;69433;48.642;9.142;2023-11-19T22:08:22;30.80;;;21.60;;
80123;SDS011;69433;48.642;9.142;2023-11-19T22:10:49;28.13;;;21.35;;
80123;SDS011;69433;48.642;9.142;2023-11-19T22:13:14;26.13;;;20.08;;
80123;SDS011;69433;48.642;9.142;2023-11-19T22:15:41;26.25;;;19.95;;
80123;SDS011;69433;48.642;9.142;2023-11-19T22:18:08;28.70;;;20.00;;
80123;SDS011;69433;48.642;9.142;2023-11-19T22:20:35;26.42;;;20.08;;